Time;durP1;ratioP1;P1;durP2;ratioP2;P2;SDS_P1;SDS_P2;PMS_P1;PMS_P2;Temp;Humidity;BMP_temperature;BMP_pressure;BME280_temperature;BME280_humidity;BME280_pressure;Samples;Min_cycle;Max_cycle;Signal;HPM_P1;HPM_P2
2021/12/22 00:00:16;;;;;;;26.48;12.52;;;;;;;0.46;58.34;101486.09;5379948;32;35378;-66
2021/12/22 00:03:18;;;;;;;;;;;;;;;0.85;57.38;101488.53;5382554;32;34085;-65
2021/12/22 00:06:25;;;;;;;27.37;12.00;;;;;;;-0.24;60.93;101498.37;5372215;32;33510;-67
2021/12/22 00:09:28;;;;;;;25.77;12.07;;;;;;;-0.45;62.07;101505.63;5376676;32;34220;-66
2021/12/22 00:12:31;;;;;;;25.13;11.43;;;;;;;-0.34;61.83;101501.59;5354661;32;32933;-67
2021/12/22 00:15:33;;;;;;;22.47;11.27;;;;;;;0.01;61.19;101499.81;5391325;32;34039;-66
2021/12/22 00:18:36;;;;;;;25.30;11.43;;;;;;;0.70;58.59;101506.34;5358816;32;33911;-65
2021/12/22 00:21:39;;;;;;;24.30;12.73;;;;;;;1.23;56.46;101503.88;5349565;32;34549;-67
2021/12/22 00:24:44;;;;;;;22.63;11.27;;;;;;;1.30;56.23;101504.00;5389821;32;33738;-67
2021/12/22 00:27:47;;;;;;;20.57;9.93;;;;;;;1.15;56.54;101515.81;5381022;32;32969;-67
2021/12/22 00:30:52;;;;;;;22.03;11.03;;;;;;;0.47;58.93;101521.44;5361707;32;34654;-67
2021/12/22 00:33:57;;;;;;;23.95;12.52;;;;;;;-0.79;62.43;101534.91;5372650;32;33926;-66
2021/12/22 00:37:00;;;;;;;20.73;11.10;;;;;;;-0.48;61.99;101537.44;5386742;32;34242;-65
2021/12/22 00:40:03;;;;;;;20.90;10.33;;;;;;;0.13;58.97;101533.69;5366039;32;34444;-65
2021/12/22 00:43:07;;;;;;;21.60;10.75;;;;;;;0.30;59.17;101536.59;5367003;32;33822;-67
2021/12/22 00:46:12;;;;;;;25.60;11.70;;;;;;;0.35;59.17;101536.72;5360071;32;35107;-66
2021/12/22 00:49:14;;;;;;;20.87;10.63;;;;;;;-0.08;60.71;101541.81;5381350;32;33436;-66
2021/12/22 00:52:17;;;;;;;25.03;10.33;;;;;;;-0.38;61.56;101543.72;5382227;32;36509;-66
2021/12/22 00:55:20;;;;;;;21.87;10.30;;;;;;;0.68;58.19;101542.56;5361304;32;34399;-66
2021/12/22 00:58:23;;;;;;;21.20;10.47;;;;;;;0.13;59.84;101549.19;5388290;32;35010;-66
2021/12/22 01:01:26;;;;;;;;;;;;;;;0.05;60.15;101544.66;5358472;32;34204;-66
2021/12/22 01:04:29;;;;;;;17.87;9.13;;;;;;;0.50;57.79;101544.78;5394141;32;33846;-65
2021/12/22 01:07:35;;;;;;;;;;;;;;;0.27;57.96;101554.66;5378233;32;35389;-66
2021/12/22 01:10:50;;;;;;;19.63;10.40;;;;;;;-0.06;59.37;101553.09;5364748;32;34898;-65
2021/12/22 01:13:54;;;;;;;19.33;9.07;;;;;;;0.59;55.96;101555.34;5391124;32;34486;-67
2021/12/22 01:17:02;;;;;;;18.90;7.87;;;;;;;0.19;57.60;101558.78;5380766;32;33590;-67
2021/12/22 01:20:13;;;;;;;19.07;8.37;;;;;;;0.66;56.46;101561.50;5360138;32;33113;-65
2021/12/22 01:23:16;;;;;;;19.23;8.60;;;;;;;0.46;55.30;101564.56;5369195;32;34068;-65
2021/12/22 01:26:18;;;;;;;17.87;7.40;;;;;;;0.08;56.70;101571.47;5372407;32;33825;-65
2021/12/22 01:29:21;;;;;;;18.37;8.37;;;;;;;0.85;54.92;101566.19;5375970;32;34484;-66
2021/12/22 01:32:27;;;;;;;16.53;8.30;;;;;;;1.60;52.13;101558.00;5379623;32;34691;-68
2021/12/22 01:35:32;;;;;;;17.20;8.00;;;;;;;1.31;52.97;101559.25;5382543;32;35612;-66
2021/12/22 01:38:34;;;;;;;16.13;7.37;;;;;;;1.39;52.58;101554.22;5371307;32;34139;-66
2021/12/22 01:41:38;;;;;;;18.63;7.27;;;;;;;1.27;53.08;101563.50;5375681;32;32505;-66
2021/12/22 01:45:02;;;;;;;18.07;7.43;;;;;;;0.51;55.01;101573.25;5364308;32;33085;-65
2021/12/22 01:51:30;;;;;;;15.07;7.07;;;;;;;0.12;57.95;101560.34;5368502;32;34011;-65
2021/12/22 01:54:47;;;;;;;15.00;6.37;;;;;;;0.72;55.04;101554.72;5387863;32;33028;-65
2021/12/22 01:57:50;;;;;;;14.77;6.53;;;;;;;1.31;53.46;101551.50;5384730;32;34631;-66
2021/12/22 02:00:53;;;;;;;18.90;6.87;;;;;;;0.85;54.25;101560.16;5368715;32;33861;-66
2021/12/22 02:03:57;;;;;;;13.23;6.47;;;;;;;0.06;57.04;101567.09;5385323;32;34341;-66
2021/12/22 02:07:00;;;;;;;14.45;6.78;;;;;;;-0.26;58.47;101564.63;5385819;32;33862;-65
2021/12/22 02:10:31;;;;;;;15.87;7.13;;;;;;;0.52;55.81;101569.84;5400845;32;34005;-66
2021/12/22 02:13:32;;;;;;;15.67;7.17;;;;;;;0.15;57.31;101573.34;5375623;32;34029;-65
2021/12/22 02:16:39;;;;;;;16.27;6.70;;;;;;;-0.48;59.13;101572.72;5376083;32;32967;-65
2021/12/22 02:19:44;;;;;;;15.87;6.60;;;;;;;0.97;54.78;101574.19;5370100;32;33755;-65
2021/12/22 02:22:47;;;;;;;14.90;7.17;;;;;;;0.68;55.39;101564.97;5361240;32;35099;-66
2021/12/22 02:25:56;;;;;;;16.17;7.18;;;;;;;0.92;54.53;101554.25;5356561;32;35302;-66
2021/12/22 02:29:05;;;;;;;17.57;6.83;;;;;;;1.20;53.45;101553.00;5367020;32;34201;-65
2021/12/22 02:32:25;;;;;;;16.43;6.70;;;;;;;-0.59;58.33;101570.72;5341434;32;35130;-66
2021/12/22 02:38:56;;;;;;;14.50;6.60;;;;;;;0.13;56.96;101568.97;5366455;32;34044;-65
2021/12/22 02:42:00;;;;;;;14.20;6.63;;;;;;;0.65;54.34;101568.41;5378627;32;34051;-67
2021/12/22 02:45:15;;;;;;;14.70;6.43;;;;;;;0.72;54.97;101565.09;5358798;32;32895;-66
2021/12/22 02:48:20;;;;;;;13.70;5.87;;;;;;;1.26;52.76;101553.13;5371179;32;32941;-65
2021/12/22 02:51:28;;;;;;;16.65;6.22;;;;;;;0.03;56.77;101567.91;5364353;32;32636;-66
2021/12/22 02:54:39;;;;;;;17.20;6.73;;;;;;;-0.83;59.75;101570.13;5385070;32;33981;-65
2021/12/22 02:57:47;;;;;;;15.53;5.77;;;;;;;0.43;55.85;101558.44;5364889;32;34710;-66
2021/12/22 03:04:13;;;;;;;11.63;5.47;;;;;;;0.65;53.96;101570.09;5379348;32;35275;-67
2021/12/22 03:07:17;;;;;;;14.13;5.70;;;;;;;-0.51;57.87;101575.25;5367391;32;34050;-66
2021/12/22 03:10:22;;;;;;;15.30;6.67;;;;;;;-0.77;58.78;101574.53;5394200;32;34802;-66
2021/12/22 03:13:25;;;;;;;14.47;6.10;;;;;;;-0.65;59.19;101586.06;5381753;32;33026;-65
2021/12/22 03:16:28;;;;;;;11.70;5.43;;;;;;;-0.18;57.58;101578.63;5364203;32;33776;-66
2021/12/22 03:19:34;;;;;;;13.10;6.07;;;;;;;1.08;53.43;101576.97;5383577;32;34847;-66
2021/12/22 03:22:38;;;;;;;14.37;5.90;;;;;;;0.24;54.83;101585.59;5382659;32;35288;-67
2021/12/22 03:25:42;;;;;;;11.27;4.80;;;;;;;0.62;54.19;101580.38;5354580;32;33333;-65
2021/12/22 03:28:46;;;;;;;12.07;5.23;;;;;;;0.90;52.40;101582.69;5392197;32;32887;-66
2021/12/22 03:31:49;;;;;;;13.05;6.00;;;;;;;0.98;51.53;101591.47;5369860;32;34291;-66
2021/12/22 03:34:52;;;;;;;13.07;4.97;;;;;;;0.56;52.72;101598.34;5388862;32;34016;-66
2021/12/22 03:37:57;;;;;;;12.83;5.07;;;;;;;1.25;51.17;101600.59;5363227;32;32866;-66
2021/12/22 03:41:00;;;;;;;13.83;5.70;;;;;;;0.59;52.66;101595.84;5385678;32;35790;-66
2021/12/22 03:44:04;;;;;;;13.10;5.60;;;;;;;0.51;53.24;101593.09;5376298;32;34026;-67
2021/12/22 03:47:09;;;;;;;15.27;5.27;;;;;;;-0.12;55.70;101588.25;5363978;32;37007;-66
2021/12/22 03:50:16;;;;;;;13.62;5.10;;;;;;;1.17;52.85;101590.09;5366949;32;34963;-66
2021/12/22 03:53:22;;;;;;;12.10;5.23;;;;;;;1.14;52.35;101591.75;5366457;32;33055;-65
2021/12/22 03:56:27;;;;;;;12.77;5.73;;;;;;;1.69;50.48;101587.53;5382167;32;33800;-65
2021/12/22 03:59:29;;;;;;;13.17;5.40;;;;;;;1.35;51.38;101589.53;5382460;32;32772;-66
2021/12/22 04:02:33;;;;;;;12.93;5.83;;;;;;;-0.20;56.45;101600.97;5368742;32;34077;-65
2021/12/22 04:05:35;;;;;;;12.20;4.97;;;;;;;1.14;53.04;101602.09;5389080;32;34233;-65
2021/12/22 04:08:38;;;;;;;14.57;5.53;;;;;;;0.40;54.47;101608.41;5387682;32;33847;-66
2021/12/22 04:11:42;;;;;;;11.53;5.70;;;;;;;1.20;53.04;101602.22;5359067;32;34563;-67
2021/12/22 04:14:46;;;;;;;12.53;5.70;;;;;;;1.00;52.35;101604.44;5396972;32;34133;-65
2021/12/22 04:17:52;;;;;;;13.50;5.30;;;;;;;0.06;56.18;101605.88;5368193;32;34897;-65
2021/12/22 04:20:55;;;;;;;16.35;5.93;;;;;;;0.70;54.71;101604.69;5364011;32;34417;-66
2021/12/22 04:24:01;;;;;;;12.05;4.93;;;;;;;0.76;53.18;101605.69;5390628;32;33785;-66
2021/12/22 04:27:04;;;;;;;16.20;5.60;;;;;;;0.29;54.33;101616.75;5370282;32;33854;-67
2021/12/22 04:30:10;;;;;;;13.10;6.07;;;;;;;1.61;51.10;101603.84;5369104;32;32935;-64
2021/12/22 04:33:21;;;;;;;12.93;5.57;;;;;;;0.94;53.05;101612.09;5393150;32;32922;-65
2021/12/22 04:36:24;;;;;;;13.87;5.60;;;;;;;1.28;51.92;101605.81;5375620;32;34005;-65
2021/12/22 04:39:27;;;;;;;15.23;5.80;;;;;;;0.57;53.78;101613.03;5386291;32;35312;-66
2021/12/22 04:42:29;;;;;;;12.33;5.40;;;;;;;1.07;53.08;101607.16;5376382;32;33900;-66
2021/12/22 04:45:32;;;;;;;13.57;6.37;;;;;;;0.93;53.15;101612.94;5383120;32;34774;-66
2021/12/22 04:48:35;;;;;;;16.13;6.43;;;;;;;0.85;53.35;101615.38;5382232;32;36153;-65
2021/12/22 04:51:47;;;;;;;13.85;5.97;;;;;;;1.26;52.54;101621.34;5387360;32;33927;-65
2021/12/22 04:55:02;;;;;;;13.03;5.70;;;;;;;0.56;54.76;101626.81;5397156;32;33983;-66
2021/12/22 04:58:05;;;;;;;14.87;6.27;;;;;;;0.95;53.41;101625.03;5382637;32;35073;-66
2021/12/22 05:01:09;;;;;;;14.82;6.20;;;;;;;1.38;52.29;101622.41;5386098;32;33722;-65
2021/12/22 05:04:13;;;;;;;13.55;6.22;;;;;;;0.89;52.86;101629.22;5383961;32;34127;-66
2021/12/22 05:07:15;;;;;;;13.00;5.47;;;;;;;0.17;55.98;101625.97;5374721;32;34105;-67
2021/12/22 05:10:18;;;;;;;16.63;6.43;;;;;;;1.50;51.46;101620.03;5372376;32;35097;-65
2021/12/22 05:13:21;;;;;;;14.63;6.22;;;;;;;1.54;51.44;101622.69;5363308;32;35314;-66
2021/12/22 05:16:23;;;;;;;15.50;6.50;;;;;;;1.15;52.04;101617.66;5380955;32;34173;-66
2021/12/22 05:19:27;;;;;;;16.00;6.67;;;;;;;0.42;54.61;101621.34;5387707;32;33973;-65
2021/12/22 05:22:31;;;;;;;17.90;6.60;;;;;;;0.39;54.08;101629.94;5358915;32;34090;-66
2021/12/22 05:25:35;;;;;;;14.00;6.20;;;;;;;0.35;55.02;101624.66;5364058;32;34388;-66
2021/12/22 05:28:39;;;;;;;14.68;6.32;;;;;;;1.03;52.50;101626.09;5386377;32;35624;-67
2021/12/22 05:31:42;;;;;;;16.80;5.57;;;;;;;0.60;54.37;101633.81;5350557;32;34585;-65
2021/12/22 05:34:46;;;;;;;17.67;6.20;;;;;;;1.41;51.79;101622.44;5387983;32;34301;-65
2021/12/22 05:37:51;;;;;;;17.57;6.07;;;;;;;1.26;51.81;101629.09;5367869;32;34782;-66
2021/12/22 05:40:59;;;;;;;14.37;5.90;;;;;;;1.27;51.27;101628.25;5349623;32;34387;-67
2021/12/22 05:44:02;;;;;;;15.50;6.53;;;;;;;0.95;52.72;101639.72;5379767;32;33706;-67
2021/12/22 05:47:05;;;;;;;12.57;5.70;;;;;;;1.45;51.01;101642.41;5356328;32;34061;-66
2021/12/22 05:50:09;;;;;;;23.90;6.53;;;;;;;0.66;53.45;101645.16;5359194;32;32978;-65
2021/12/22 05:53:13;;;;;;;13.53;6.00;;;;;;;1.19;51.97;101644.50;5357730;32;34126;-67
2021/12/22 05:56:17;;;;;;;;;;;;;;;1.61;50.25;101647.91;5351756;32;35678;-65
2021/12/22 05:59:20;;;;;;;14.33;5.47;;;;;;;1.25;51.02;101647.22;5377602;32;34981;-67
2021/12/22 06:02:22;;;;;;;17.57;7.20;;;;;;;1.33;50.78;101653.41;5364414;32;34083;-66
2021/12/22 06:05:26;;;;;;;14.57;6.43;;;;;;;0.75;51.93;101660.00;5391531;32;34411;-66
2021/12/22 06:08:34;;;;;;;15.27;6.13;;;;;;;0.78;52.92;101665.25;5380078;32;34452;-66
2021/12/22 06:11:37;;;;;;;17.77;7.65;;;;;;;1.25;51.44;101662.75;5364262;32;34174;-65
2021/12/22 06:14:40;;;;;;;19.30;6.80;;;;;;;0.96;52.84;101669.94;5387470;32;34642;-66
2021/12/22 06:17:43;;;;;;;19.10;7.60;;;;;;;0.95;53.69;101666.47;5354472;32;33956;-65
2021/12/22 06:20:47;;;;;;;16.63;7.73;;;;;;;0.14;56.41;101666.41;5382783;32;34323;-65
2021/12/22 06:23:50;;;;;;;17.00;7.73;;;;;;;0.43;56.16;101674.81;5383435;32;34620;-66
2021/12/22 06:26:52;;;;;;;16.20;7.13;;;;;;;0.87;55.25;101683.56;5386717;32;33947;-65
2021/12/22 06:29:55;;;;;;;16.70;7.95;;;;;;;0.73;55.12;101685.00;5367085;32;34170;-66
2021/12/22 06:33:01;;;;;;;16.85;7.45;;;;;;;0.70;54.44;101683.19;5384885;32;36399;-66
2021/12/22 06:36:03;;;;;;;18.42;7.70;;;;;;;0.88;54.42;101687.91;5373360;32;32617;-65
2021/12/22 06:39:07;;;;;;;21.10;7.43;;;;;;;0.42;55.06;101697.22;5346329;32;35831;-67
2021/12/22 06:42:30;;;;;;;29.05;9.20;;;;;;;0.79;54.90;101700.66;5357685;32;32997;-64
2021/12/22 06:45:34;;;;;;;17.23;7.40;;;;;;;0.22;56.29;101716.59;5370589;32;35267;-65
2021/12/22 06:48:36;;;;;;;16.47;7.77;;;;;;;0.37;56.19;101716.06;5369542;32;32956;-65
2021/12/22 06:52:27;;;;;;;17.02;7.05;;;;;;;1.22;53.36;101710.16;5345349;32;34614;-63
2021/12/22 06:55:44;;;;;;;17.13;7.20;;;;;;;0.70;55.04;101715.97;5380344;32;34063;-64
2021/12/22 06:58:57;;;;;;;16.20;7.27;;;;;;;0.56;54.64;101714.78;5342435;32;34634;-66
2021/12/22 07:02:04;;;;;;;14.17;6.50;;;;;;;0.97;53.57;101714.00;5373679;32;33821;-65
2021/12/22 07:05:23;;;;;;;13.37;5.90;;;;;;;0.83;54.25;101717.97;5355596;32;33480;-72
2021/12/22 07:08:30;;;;;;;13.27;5.47;;;;;;;1.89;48.03;101713.16;5342253;33;32840;-71
2021/12/22 07:11:38;;;;;;;10.47;4.73;;;;;;;1.50;49.60;101706.41;5325103;33;35769;-64
2021/12/22 07:14:41;;;;;;;10.33;4.27;;;;;;;1.62;47.43;101719.59;5344630;33;35167;-77
2021/12/22 07:17:46;;;;;;;11.60;5.10;;;;;;;2.00;46.31;101715.97;5318670;33;33397;-68
2021/12/22 07:20:48;;;;;;;12.57;5.67;;;;;;;0.52;51.03;101722.50;5355398;32;33029;-71
2021/12/22 07:23:51;;;;;;;13.97;6.27;;;;;;;1.40;49.62;101720.03;5329417;33;34753;-67
2021/12/22 07:26:57;;;;;;;16.13;6.23;;;;;;;1.38;49.71;101718.25;5332099;33;32417;-69
2021/12/22 07:30:00;;;;;;;14.97;6.33;;;;;;;1.28;49.92;101725.84;5326290;33;35311;-70
2021/12/22 07:33:11;;;;;;;26.47;11.70;;;;;;;1.86;48.27;101723.47;5347511;32;33317;-68
2021/12/22 07:36:15;;;;;;;15.13;6.97;;;;;;;0.92;52.69;101728.53;5351816;32;33980;-74
2021/12/22 07:39:18;;;;;;;16.87;7.20;;;;;;;0.97;52.01;101729.53;5323882;33;33482;-63
2021/12/22 07:42:23;;;;;;;16.25;7.22;;;;;;;2.08;49.94;101732.53;5333409;33;33494;-67
2021/12/22 07:45:32;;;;;;;18.70;7.27;;;;;;;2.12;49.46;101729.09;5336593;33;34239;-70
2021/12/22 07:48:36;;;;;;;16.47;7.10;;;;;;;2.16;49.48;101739.56;5342157;32;33249;-61
2021/12/22 07:51:49;;;;;;;;;;;;;;;1.58;50.19;101743.72;5339780;33;35899;-64
2021/12/22 07:55:10;;;;;;;19.33;7.77;;;;;;;1.47;50.24;101745.22;5338487;33;33322;-65
2021/12/22 07:58:26;;;;;;;18.63;8.13;;;;;;;2.42;49.21;101744.31;5327612;33;35343;-75
2021/12/22 08:01:41;;;;;;;19.87;7.27;;;;;;;2.75;48.03;101743.94;5342143;32;34500;-65
2021/12/22 08:05:33;;;;;;;17.80;6.90;;;;;;;2.37;48.83;101753.75;5354909;32;34100;-72
2021/12/22 08:08:40;;;;;;;17.43;7.20;;;;;;;2.37;47.57;101754.59;5333859;33;33133;-70
2021/12/22 08:11:44;;;;;;;18.27;6.70;;;;;;;2.14;48.16;101759.44;5335348;33;33367;-71
2021/12/22 08:14:47;;;;;;;18.30;7.63;;;;;;;2.01;47.83;101765.25;5332715;33;32905;-69
2021/12/22 08:17:52;;;;;;;18.40;8.67;;;;;;;2.05;48.35;101767.03;5336934;33;32610;-72
2021/12/22 08:20:57;;;;;;;17.83;6.53;;;;;;;2.25;47.45;101758.72;5332481;33;33511;-73
2021/12/22 08:24:11;;;;;;;14.37;6.70;;;;;;;2.20;46.92;101766.44;5327545;33;34647;-77
2021/12/22 08:27:14;;;;;;;18.23;6.80;;;;;;;2.63;46.70;101760.22;5316036;33;33899;-72
2021/12/22 08:30:18;;;;;;;16.75;7.03;;;;;;;1.68;48.49;101775.00;5316684;33;33238;-71
2021/12/22 08:33:26;;;;;;;15.87;6.70;;;;;;;2.39;46.89;101765.91;5335134;33;33899;-71
2021/12/22 08:40:14;;;;;;;15.07;6.27;;;;;;;2.13;46.63;101787.94;5372766;32;33259;-68
2021/12/22 08:43:17;;;;;;;14.23;6.03;;;;;;;2.89;43.41;101778.78;5378147;32;32776;-67
2021/12/22 08:46:21;;;;;;;14.67;6.10;;;;;;;2.66;44.63;101778.44;5365794;32;35062;-66
2021/12/22 08:49:24;;;;;;;14.93;6.73;;;;;;;3.29;42.99;101779.34;5401153;32;35311;-69
2021/12/22 08:52:29;;;;;;;14.37;6.30;;;;;;;2.93;43.84;101784.88;5345677;32;34536;-65
2021/12/22 08:55:32;;;;;;;16.10;6.87;;;;;;;3.19;42.75;101787.84;5345720;32;35461;-70
2021/12/22 08:58:55;;;;;;;16.27;6.83;;;;;;;2.74;44.39;101788.06;5343276;32;34414;-77
2021/12/22 09:01:59;;;;;;;16.00;6.70;;;;;;;2.56;44.33;101788.66;5368017;32;35533;-71
2021/12/22 09:05:13;;;;;;;16.30;6.72;;;;;;;2.58;45.17;101795.63;5383960;32;34052;-73
2021/12/22 09:08:15;;;;;;;;;;;;;;;2.26;46.18;101802.00;5365046;32;34114;-63
2021/12/22 09:11:21;;;;;;;13.90;5.90;;;;;;;1.81;46.24;101800.31;5385249;32;34196;-69
2021/12/22 09:14:24;;;;;;;13.47;5.67;;;;;;;2.71;43.55;101792.38;5355753;32;35330;-63
2021/12/22 09:17:27;;;;;;;12.68;6.00;;;;;;;2.54;42.68;101799.00;5396620;32;33384;-71
2021/12/22 09:20:30;;;;;;;13.73;6.00;;;;;;;2.54;43.87;101798.12;5377563;32;32504;-69
2021/12/22 09:23:38;;;;;;;14.47;6.17;;;;;;;3.38;42.63;101783.78;5381184;32;34549;-72
2021/12/22 09:26:41;;;;;;;17.73;6.70;;;;;;;3.07;43.26;101793.75;5360168;32;34368;-69
2021/12/22 09:29:45;;;;;;;12.15;5.90;;;;;;;3.60;42.17;101784.88;5364670;32;32975;-69
2021/12/22 09:32:49;;;;;;;13.82;6.53;;;;;;;3.25;41.84;101783.59;5398411;32;33917;-73
2021/12/22 09:35:54;;;;;;;15.80;6.77;;;;;;;2.48;43.03;101788.53;5380281;32;33974;-66
2021/12/22 09:38:56;;;;;;;16.50;5.47;;;;;;;2.12;44.23;101802.59;5393445;32;34874;-65
2021/12/22 09:41:59;;;;;;;18.63;6.53;;;;;;;3.40;40.34;101795.03;5380478;32;35418;-66
2021/12/22 09:45:03;;;;;;;15.77;6.07;;;;;;;2.67;42.16;101798.34;5369349;32;36569;-71
2021/12/22 09:54:14;;;;;;;12.35;5.45;;;;;;;3.30;40.43;101788.00;5376823;32;33957;-73
2021/12/22 09:57:18;;;;;;;13.33;5.33;;;;;;;3.80;38.85;101773.00;5374341;32;34107;-69
2021/12/22 10:00:20;;;;;;;14.05;5.57;;;;;;;2.92;39.67;101781.44;5362198;32;35358;-70
2021/12/22 10:03:24;;;;;;;10.87;5.07;;;;;;;3.18;39.66;101781.78;5392693;32;34759;-64
2021/12/22 10:06:29;;;;;;;14.30;6.17;;;;;;;3.38;39.17;101778.56;5356320;32;34364;-66
2021/12/22 10:09:53;;;;;;;15.53;6.27;;;;;;;3.21;39.53;101768.81;5389523;32;33497;-65
2021/12/22 10:13:16;;;;;;;11.57;4.53;;;;;;;2.54;41.61;101777.38;5363380;32;36112;-68
2021/12/22 10:16:24;;;;;;;11.00;3.83;;;;;;;2.65;40.13;101778.44;5384799;32;34374;-62
2021/12/22 10:19:28;;;;;;;12.20;5.60;;;;;;;2.50;40.72;101783.34;5347213;32;34199;-67
2021/12/22 10:22:33;;;;;;;13.73;6.17;;;;;;;2.37;41.90;101779.69;5375811;32;34244;-68
2021/12/22 10:25:38;;;;;;;12.97;5.63;;;;;;;1.93;43.27;101787.56;5350763;32;34514;-62
2021/12/22 10:29:21;;;;;;;13.50;6.57;;;;;;;2.42;42.20;101784.09;5373391;32;33845;-62
2021/12/22 10:33:13;;;;;;;12.70;6.15;;;;;;;2.61;41.31;101780.09;5367506;32;35005;-67
2021/12/22 10:37:02;;;;;;;14.57;6.10;;;;;;;3.19;40.97;101767.94;5388032;32;35261;-72
2021/12/22 10:40:21;;;;;;;12.47;5.80;;;;;;;3.37;39.81;101762.09;5365284;32;34209;-70
2021/12/22 10:43:29;;;;;;;16.33;6.80;;;;;;;3.09;40.55;101760.91;5371591;32;34201;-67
2021/12/22 10:46:35;;;;;;;16.83;7.30;;;;;;;3.63;40.83;101761.53;5389606;32;35442;-72
2021/12/22 10:49:39;;;;;;;18.57;7.70;;;;;;;3.19;42.82;101764.47;5360133;32;34967;-63
2021/12/22 10:52:41;;;;;;;16.85;7.62;;;;;;;3.43;41.98;101758.72;5344151;32;33906;-68
2021/12/22 10:56:02;;;;;;;20.90;9.57;;;;;;;2.96;43.63;101764.12;5358392;32;34842;-78
2021/12/22 10:59:12;;;;;;;15.67;7.70;;;;;;;3.76;42.68;101747.81;5343341;32;33917;-64
2021/12/22 11:02:34;;;;;;;17.33;7.10;;;;;;;4.49;39.89;101745.87;5381932;32;34795;-73
2021/12/22 11:05:53;;;;;;;18.30;7.80;;;;;;;3.91;40.58;101749.69;5400631;32;34807;-71
2021/12/22 11:09:04;;;;;;;16.03;7.13;;;;;;;3.62;41.56;101752.88;5390723;32;34704;-69
2021/12/22 11:12:17;;;;;;;22.67;9.83;;;;;;;3.91;40.76;101741.87;5378068;32;35579;-70
2021/12/22 11:15:22;;;;;;;26.23;8.00;;;;;;;2.68;44.36;101747.31;5377326;32;34011;-66
2021/12/22 11:18:26;;;;;;;19.97;9.63;;;;;;;3.36;43.28;101743.91;5374551;32;33903;-65
2021/12/22 11:21:33;;;;;;;15.53;7.57;;;;;;;4.10;41.26;101741.19;5387951;32;34090;-63
2021/12/22 11:24:40;;;;;;;18.63;8.40;;;;;;;2.80;43.56;101739.69;5372605;32;35195;-64
2021/12/22 11:27:45;;;;;;;17.77;7.33;;;;;;;4.43;40.19;101737.12;5369187;32;35491;-68
2021/12/22 11:30:59;;;;;;;15.37;7.03;;;;;;;4.66;39.13;101729.50;5378036;32;35291;-65
2021/12/22 11:34:04;;;;;;;18.87;7.73;;;;;;;5.16;37.74;101730.66;5345675;32;35865;-69
2021/12/22 11:37:10;;;;;;;21.63;9.33;;;;;;;3.88;40.31;101727.12;5357187;32;34789;-71
2021/12/22 11:40:17;;;;;;;20.47;8.30;;;;;;;3.35;42.34;101729.13;5371827;32;34921;-70
2021/12/22 11:43:20;;;;;;;19.90;8.50;;;;;;;3.89;41.59;101726.28;5391377;32;34049;-63
2021/12/22 11:46:28;;;;;;;21.73;8.15;;;;;;;4.47;39.73;101720.69;5372957;32;35444;-70
2021/12/22 11:49:44;;;;;;;19.00;7.90;;;;;;;4.18;40.09;101720.44;5391816;32;34265;-65
2021/12/22 11:53:08;;;;;;;15.03;5.80;;;;;;;3.71;40.89;101726.97;5381143;32;34048;-69
2021/12/22 11:56:33;;;;;;;15.23;6.57;;;;;;;4.10;38.60;101725.59;5383843;32;34820;-66
2021/12/22 11:59:38;;;;;;;14.40;6.83;;;;;;;3.73;39.63;101725.22;5377717;32;33133;-66
2021/12/22 12:02:41;;;;;;;14.60;6.60;;;;;;;3.62;40.39;101718.19;5365690;32;34067;-74
2021/12/22 12:06:07;;;;;;;14.80;6.47;;;;;;;2.92;42.19;101726.88;5383540;32;35179;-68
2021/12/22 12:09:13;;;;;;;17.27;7.30;;;;;;;2.54;43.08;101715.97;5376952;32;34358;-66
2021/12/22 12:12:46;;;;;;;19.23;7.80;;;;;;;3.16;42.08;101710.75;5370313;32;33045;-66
2021/12/22 12:27:32;;;;;;;17.40;7.73;;;;;;;5.84;37.94;101697.81;5381891;32;34691;-62
2021/12/22 12:30:46;;;;;;;21.90;8.50;;;;;;;5.11;38.38;101706.31;5394840;32;34749;-65
2021/12/22 12:33:50;;;;;;;17.20;7.40;;;;;;;4.64;40.14;101693.03;5361466;32;34771;-63
2021/12/22 12:36:53;;;;;;;16.33;7.50;;;;;;;4.92;38.81;101701.88;5388302;32;34439;-64
2021/12/22 12:40:11;;;;;;;17.27;7.97;;;;;;;4.57;39.82;101694.72;5379546;32;34028;-67
2021/12/22 12:43:14;;;;;;;18.17;8.70;;;;;;;5.48;37.62;101692.53;5396931;32;33744;-68
2021/12/22 12:46:43;;;;;;;16.27;7.93;;;;;;;5.62;38.21;101696.03;5358958;32;35372;-71
2021/12/22 12:49:51;;;;;;;19.77;8.73;;;;;;;5.89;37.09;101690.84;5384166;32;32851;-65
2021/12/22 12:53:01;;;;;;;19.13;8.90;;;;;;;4.19;40.67;101697.06;5389831;32;34677;-75
2021/12/22 12:56:10;;;;;;;22.53;10.77;;;;;;;4.68;40.36;101686.97;5391673;32;34230;-74
2021/12/22 12:59:25;;;;;;;16.63;8.67;;;;;;;4.78;40.25;101700.94;5391067;32;34075;-70
2021/12/22 13:02:41;;;;;;;19.07;9.47;;;;;;;4.24;41.16;101699.69;5367290;32;33991;-66
2021/12/22 13:06:08;;;;;;;;;;;;;;;2.92;44.90;101706.12;5384389;32;34079;-62
2021/12/22 13:09:24;;;;;;;18.13;8.93;;;;;;;3.87;43.51;101707.19;5379389;32;33077;-65
2021/12/22 13:13:29;;;;;;;22.67;9.87;;;;;;;3.02;44.79;101701.88;5357276;32;35123;-65
2021/12/22 13:15:57;;;;;;;23.23;9.57;;;;;;;2.93;45.72;101702.66;5373106;32;35390;-69
2021/12/22 13:19:05;;;;;;;22.43;9.37;;;;;;;4.45;41.80;101694.66;5352799;32;35541;-80
2021/12/22 13:22:22;;;;;;;20.83;9.47;;;;;;;2.92;44.98;101700.06;5368526;32;33361;-74
2021/12/22 13:25:35;;;;;;;24.27;12.40;;;;;;;2.93;45.51;101704.37;5365467;32;35467;-62
2021/12/22 13:28:42;;;;;;;22.80;10.23;;;;;;;3.35;45.55;101706.66;5388065;32;34855;-69
2021/12/22 13:32:11;;;;;;;19.60;9.20;;;;;;;2.61;47.04;101707.41;5377082;32;33759;-71
2021/12/22 13:35:45;;;;;;;20.70;9.90;;;;;;;3.52;45.15;101699.03;5380302;32;34271;-65
2021/12/22 13:39:01;;;;;;;21.47;9.10;;;;;;;4.13;43.55;101694.41;5377024;32;34545;-62
2021/12/22 13:42:14;;;;;;;20.30;10.47;;;;;;;3.43;44.57;101701.53;5361992;32;32909;-68
2021/12/22 13:45:21;;;;;;;21.98;9.35;;;;;;;3.50;44.72;101703.34;5367605;32;34933;-64
2021/12/22 13:48:27;;;;;;;21.90;10.07;;;;;;;4.16;43.20;101697.03;5355590;32;35310;-73
2021/12/22 13:51:34;;;;;;;20.33;10.47;;;;;;;2.85;46.43;101709.47;5353725;32;33271;-69
2021/12/22 13:54:39;;;;;;;22.98;10.23;;;;;;;3.93;43.95;101702.06;5365387;32;34259;-72
2021/12/22 13:57:42;;;;;;;27.13;10.60;;;;;;;2.69;47.42;101704.91;5362338;32;34672;-67
2021/12/22 14:00:49;;;;;;;21.60;9.80;;;;;;;3.10;46.10;101705.47;5351472;32;32953;-72
2021/12/22 14:04:01;;;;;;;22.17;9.27;;;;;;;2.68;47.37;101705.78;5334213;32;33950;-64
2021/12/22 14:07:14;;;;;;;18.80;9.88;;;;;;;2.10;48.32;101708.34;5365749;32;34416;-62
2021/12/22 14:10:22;;;;;;;23.53;10.60;;;;;;;2.41;47.41;101695.88;5359772;32;34875;-70
2021/12/22 14:13:28;;;;;;;19.92;10.32;;;;;;;2.24;48.47;101702.50;5341620;32;34103;-69
2021/12/22 14:16:34;;;;;;;23.67;9.87;;;;;;;3.25;45.33;101700.47;5352636;32;33952;-74
2021/12/22 14:19:42;;;;;;;26.73;9.37;;;;;;;2.33;47.55;101694.87;5377903;32;34074;-79
2021/12/22 14:23:03;;;;;;;18.37;9.23;;;;;;;2.98;46.57;101700.12;5354476;32;35288;-74
2021/12/22 14:26:07;;;;;;;19.93;9.27;;;;;;;3.65;44.61;101695.69;5373445;32;34618;-64
2021/12/22 14:29:14;;;;;;;19.93;9.50;;;;;;;3.45;44.71;101698.09;5370940;32;34124;-74
2021/12/22 14:32:29;;;;;;;19.33;8.93;;;;;;;2.56;46.22;101695.22;5330533;32;33786;-69
2021/12/22 14:35:38;;;;;;;20.67;9.73;;;;;;;2.38;47.38;101704.50;5365612;32;33895;-65
2021/12/22 14:38:48;;;;;;;20.73;10.00;;;;;;;3.01;45.57;101700.16;5336669;32;36573;-65
2021/12/22 14:41:52;;;;;;;20.13;9.23;;;;;;;3.65;44.30;101693.09;5365478;32;34997;-70
2021/12/22 14:45:19;;;;;;;24.42;10.70;;;;;;;3.19;45.63;101702.97;5370536;32;35417;-72
2021/12/22 14:48:26;;;;;;;21.00;9.33;;;;;;;3.39;45.04;101694.53;5363166;32;34732;-66
2021/12/22 14:51:39;;;;;;;30.13;10.73;;;;;;;2.04;48.95;101699.59;5372260;32;33785;-68
2021/12/22 14:54:41;;;;;;;19.93;10.17;;;;;;;2.82;47.13;101698.16;5378737;32;33953;-69
2021/12/22 14:57:43;;;;;;;21.57;10.50;;;;;;;1.68;49.50;101697.25;5372069;32;37179;-65
2021/12/22 15:00:51;;;;;;;20.17;9.83;;;;;;;1.90;49.31;101696.75;5375327;32;34121;-61
2021/12/22 15:03:56;;;;;;;20.93;9.83;;;;;;;2.67;47.35;101688.44;5372157;32;34131;-67